Time;durP1;ratioP1;P1;durP2;ratioP2;P2;SDS_P1;SDS_P2;PMS_P1;PMS_P2;Temp;Humidity;BMP_temperature;BMP_pressure;BME280_temperature;BME280_humidity;BME280_pressure;Samples;Min_cycle;Max_cycle;Signal;HPM_P1;HPM_P2
2022/01/29 00:01:36;;;;;;;40.97;21.35;;;6.80;99.90;;;;;;4976191;28;20479;-69
2022/01/29 00:04:01;;;;;;;44.63;21.25;;;6.80;99.90;;;;;;4976525;28;20046;-71
2022/01/29 00:06:27;;;;;;;43.92;21.60;;;6.70;99.90;;;;;;4976712;28;20050;-70
2022/01/29 00:08:55;;;;;;;46.42;21.65;;;6.70;99.90;;;;;;4992812;28;20042;-70
2022/01/29 00:11:27;;;;;;;49.00;21.77;;;6.70;99.90;;;;;;4995833;28;20046;-68
2022/01/29 00:13:52;;;;;;;48.45;22.77;;;6.70;99.90;;;;;;4996036;28;20046;-70
2022/01/29 00:16:18;;;;;;;50.63;21.55;;;6.70;99.90;;;;;;4995713;28;20050;-69
2022/01/29 00:18:43;;;;;;;51.45;21.80;;;6.70;99.90;;;;;;4996014;28;20509;-69
2022/01/29 00:21:09;;;;;;;39.80;21.52;;;6.80;99.90;;;;;;4995717;28;20057;-68
2022/01/29 00:23:35;;;;;;;39.97;21.38;;;6.80;99.90;;;;;;4978263;28;20375;-69
2022/01/29 00:26:00;;;;;;;43.90;20.50;;;6.70;99.90;;;;;;4991520;28;20057;-71
2022/01/29 00:28:27;;;;;;;36.05;19.65;;;6.80;99.90;;;;;;4963828;28;20054;-68
2022/01/29 00:30:53;;;;;;;39.45;21.40;;;6.80;99.90;;;;;;4975855;28;20050;-68
2022/01/29 00:33:18;;;;;;;42.78;21.38;;;6.80;99.90;;;;;;4975898;28;20046;-69
2022/01/29 00:35:44;;;;;;;46.75;21.52;;;6.80;99.90;;;;;;4976128;28;20120;-69
2022/01/29 00:38:09;;;;;;;46.20;23.30;;;6.80;99.90;;;;;;4942236;28;20089;-68
2022/01/29 00:40:36;;;;;;;54.53;23.35;;;6.80;99.90;;;;;;4976244;28;20043;-69
2022/01/29 00:43:04;;;;;;;39.35;22.27;;;6.80;99.90;;;;;;4976225;28;20416;-70
2022/01/29 00:45:30;;;;;;;46.30;23.33;;;6.80;99.90;;;;;;4975670;28;20058;-69
2022/01/29 00:47:55;;;;;;;51.08;23.27;;;6.80;99.90;;;;;;4975839;28;20210;-69
2022/01/29 00:50:21;;;;;;;47.28;24.30;;;6.80;99.90;;;;;;4975943;28;20141;-69
2022/01/29 00:52:47;;;;;;;40.03;23.75;;;6.80;99.90;;;;;;4995537;28;20053;-68
2022/01/29 00:55:13;;;;;;;46.42;23.20;;;6.80;99.90;;;;;;4977267;28;20145;-69
2022/01/29 00:57:40;;;;;;;50.65;24.73;;;6.80;99.90;;;;;;4994868;28;20057;-68
2022/01/29 01:00:08;;;;;;;42.70;22.50;;;6.80;99.90;;;;;;4990989;28;20096;-69
2022/01/29 01:02:34;;;;;;;44.00;25.13;;;6.80;99.90;;;;;;4975704;28;20059;-69
2022/01/29 01:05:00;;;;;;;46.25;24.08;;;7.10;99.90;;;;;;4959235;28;20126;-68
2022/01/29 01:07:26;;;;;;;42.28;24.77;;;6.80;99.90;;;;;;4975805;28;20070;-70
2022/01/29 01:09:52;;;;;;;41.47;23.73;;;6.80;99.90;;;;;;4947168;28;20058;-70
2022/01/29 01:12:17;;;;;;;42.67;24.38;;;6.80;99.90;;;;;;4995058;28;20046;-68
2022/01/29 01:14:43;;;;;;;48.80;25.60;;;6.80;99.90;;;;;;4994852;28;20049;-69
2022/01/29 01:17:09;;;;;;;42.83;24.10;;;6.80;99.90;;;;;;4995159;28;20478;-69
2022/01/29 01:19:34;;;;;;;41.83;23.73;;;6.80;99.90;;;;;;4995028;28;20089;-70
2022/01/29 01:22:01;;;;;;;49.78;24.60;;;6.80;99.90;;;;;;4995012;28;20046;-72
2022/01/29 01:24:26;;;;;;;41.00;24.23;;;6.80;99.90;;;;;;4994873;28;20116;-67
2022/01/29 01:26:52;;;;;;;45.85;24.65;;;6.80;99.90;;;;;;4985951;28;20051;-69
2022/01/29 01:29:18;;;;;;;41.83;24.50;;;6.80;99.90;;;;;;4977892;28;20059;-69
2022/01/29 01:31:45;;;;;;;44.13;24.42;;;6.90;99.90;;;;;;4959432;28;20428;-70
2022/01/29 01:34:16;;;;;;;45.60;25.52;;;6.90;99.90;;;;;;4975490;28;20065;-71
2022/01/29 01:36:48;;;;;;;39.00;22.52;;;6.90;99.90;;;;;;4958346;28;20054;-68
2022/01/29 01:39:18;;;;;;;43.03;24.50;;;7.00;99.90;;;;;;4975719;28;20404;-69
2022/01/29 01:41:53;;;;;;;48.13;24.45;;;7.00;99.90;;;;;;4976399;28;20055;-69
2022/01/29 01:44:19;;;;;;;52.33;23.40;;;7.00;99.90;;;;;;4962580;28;20058;-69
2022/01/29 01:46:44;;;;;;;47.72;23.45;;;7.00;99.90;;;;;;4961960;28;20125;-68
2022/01/29 01:49:10;;;;;;;43.80;24.27;;;7.10;99.90;;;;;;4962187;28;20073;-68
2022/01/29 01:51:37;;;;;;;46.25;24.02;;;7.10;99.90;;;;;;4962190;28;20086;-69
2022/01/29 01:54:03;;;;;;;45.85;24.23;;;7.10;99.90;;;;;;4968449;28;20157;-68
2022/01/29 01:56:28;;;;;;;44.08;23.35;;;7.20;99.90;;;;;;4997907;28;20046;-69
2022/01/29 01:58:57;;;;;;;60.85;26.23;;;7.10;99.90;;;;;;4998183;28;20050;-69
2022/01/29 02:01:23;;;;;;;54.00;26.02;;;7.30;99.90;;;;;;4998329;28;20054;-69
2022/01/29 02:03:49;;;;;;;55.63;25.77;;;7.20;99.90;;;;;;4998334;28;20490;-70
2022/01/29 02:06:15;;;;;;;55.30;26.15;;;7.20;99.90;;;;;;4997957;28;20185;-68
2022/01/29 02:08:41;;;;;;;58.25;24.83;;;7.20;99.90;;;;;;4981011;28;20052;-68
2022/01/29 02:11:08;;;;;;;53.17;26.60;;;7.20;99.90;;;;;;4980713;28;20078;-68
2022/01/29 02:13:33;;;;;;;63.20;27.55;;;7.20;99.90;;;;;;4997951;28;20046;-70
2022/01/29 02:16:01;;;;;;;56.92;26.75;;;7.20;99.90;;;;;;4980682;28;20109;-70
2022/01/29 02:18:26;;;;;;;64.95;26.67;;;7.40;99.90;;;;;;4997662;28;20064;-69
2022/01/29 02:20:52;;;;;;;53.60;26.48;;;7.30;99.90;;;;;;4980611;28;20050;-70
2022/01/29 02:23:18;;;;;;;53.08;26.20;;;7.30;99.90;;;;;;4997611;28;20044;-69
2022/01/29 02:25:49;;;;;;;52.80;26.13;;;7.30;99.90;;;;;;4978536;28;20050;-70
2022/01/29 02:28:17;;;;;;;64.93;25.85;;;7.30;99.90;;;;;;4984468;28;20404;-68
2022/01/29 02:30:45;;;;;;;53.42;25.17;;;7.30;99.90;;;;;;4974026;28;20062;-67
2022/01/29 02:33:13;;;;;;;51.83;25.50;;;7.30;99.90;;;;;;4945096;28;20129;-69
2022/01/29 02:35:44;;;;;;;53.00;25.58;;;7.40;99.90;;;;;;4977911;28;20054;-68
2022/01/29 02:38:11;;;;;;;62.63;26.55;;;7.30;99.90;;;;;;4960962;28;20058;-68
2022/01/29 02:41:01;;;;;;;53.58;25.83;;;7.40;99.90;;;;;;4977770;28;20059;-69
2022/01/29 02:43:26;;;;;;;53.13;26.98;;;7.40;99.90;;;;;;4977672;28;20062;-69
2022/01/29 02:45:55;;;;;;;55.85;27.67;;;7.40;99.90;;;;;;4978169;28;20062;-69
2022/01/29 02:48:22;;;;;;;55.78;26.77;;;7.40;99.90;;;;;;4977760;28;20038;-69
2022/01/29 02:50:49;;;;;;;59.38;26.20;;;7.40;99.90;;;;;;4969529;28;20485;-68
2022/01/29 02:53:15;;;;;;;50.13;25.55;;;7.40;99.90;;;;;;4996797;28;20146;-68
2022/01/29 02:55:41;;;;;;;47.33;23.70;;;7.40;99.90;;;;;;4980202;28;20089;-69
2022/01/29 02:58:07;;;;;;;64.50;26.23;;;7.50;99.90;;;;;;4997313;28;20046;-69
2022/01/29 03:00:33;;;;;;;55.08;23.65;;;7.50;99.90;;;;;;4979972;28;20100;-67
2022/01/29 03:02:58;;;;;;;51.97;25.08;;;7.50;99.90;;;;;;4966682;28;20046;-71
2022/01/29 03:05:24;;;;;;;55.17;24.92;;;7.50;99.90;;;;;;4960687;28;20130;-68
2022/01/29 03:07:50;;;;;;;58.97;25.33;;;7.50;99.90;;;;;;4973180;28;20116;-69
2022/01/29 03:10:16;;;;;;;53.80;25.35;;;7.50;99.90;;;;;;4960801;28;20070;-71
2022/01/29 03:12:42;;;;;;;55.10;25.17;;;7.60;99.90;;;;;;4977597;28;20057;-69
2022/01/29 03:15:09;;;;;;;53.15;24.42;;;7.50;99.90;;;;;;4960729;28;20344;-69
2022/01/29 03:17:35;;;;;;;56.25;24.48;;;7.50;99.90;;;;;;4959978;28;20101;-69
2022/01/29 03:20:01;;;;;;;53.17;24.98;;;7.50;99.90;;;;;;4977824;28;20309;-69
2022/01/29 03:22:27;;;;;;;53.22;24.77;;;7.60;99.90;;;;;;4970862;28;20135;-69
2022/01/29 03:24:53;;;;;;;57.05;24.40;;;7.60;99.90;;;;;;4978975;28;20136;-69
2022/01/29 03:27:18;;;;;;;51.30;23.15;;;7.60;99.90;;;;;;4982339;28;20078;-69
2022/01/29 03:29:44;;;;;;;51.45;22.55;;;7.60;99.90;;;;;;4960351;28;20042;-69
2022/01/29 03:32:10;;;;;;;45.80;23.88;;;7.60;99.90;;;;;;4960069;28;20163;-70
2022/01/29 03:34:36;;;;;;;58.58;24.55;;;7.60;99.90;;;;;;4977004;28;20046;-68
2022/01/29 03:37:02;;;;;;;40.80;22.65;;;7.60;99.90;;;;;;4976941;28;20065;-68
2022/01/29 03:39:28;;;;;;;46.28;21.33;;;7.60;99.90;;;;;;4967954;28;20070;-69
2022/01/29 03:42:00;;;;;;;45.88;21.92;;;7.70;99.90;;;;;;4979444;28;20054;-69
2022/01/29 03:44:26;;;;;;;47.00;21.38;;;7.70;99.90;;;;;;4996333;28;20050;-69
2022/01/29 03:46:51;;;;;;;51.65;22.30;;;7.70;99.90;;;;;;4996246;28;20172;-68
2022/01/29 03:49:17;;;;;;;51.33;20.65;;;7.70;99.90;;;;;;4996142;28;20061;-68
2022/01/29 03:51:42;;;;;;;41.00;21.35;;;7.70;99.90;;;;;;4996007;28;20042;-69
2022/01/29 03:54:08;;;;;;;34.83;20.70;;;7.70;99.90;;;;;;4970941;28;20059;-68
2022/01/29 03:56:33;;;;;;;42.08;20.67;;;7.80;99.90;;;;;;4976836;28;20130;-68
2022/01/29 03:58:59;;;;;;;42.30;20.35;;;7.70;99.90;;;;;;4976719;28;20078;-69
2022/01/29 04:01:24;;;;;;;42.38;20.33;;;7.80;99.90;;;;;;4959245;28;20061;-68
2022/01/29 04:03:50;;;;;;;41.28;19.60;;;7.80;99.90;;;;;;4966090;28;20046;-69
2022/01/29 04:06:16;;;;;;;41.05;20.30;;;7.80;99.90;;;;;;4995883;28;20050;-68
2022/01/29 04:08:43;;;;;;;42.10;19.83;;;7.80;99.90;;;;;;4995620;28;20077;-69
2022/01/29 04:11:12;;;;;;;38.90;20.38;;;7.80;99.90;;;;;;4996102;28;20042;-69
2022/01/29 04:13:44;;;;;;;39.65;19.50;;;7.80;99.90;;;;;;4978736;28;20387;-68
2022/01/29 04:16:11;;;;;;;40.67;19.00;;;7.90;99.90;;;;;;4995534;28;20108;-71
2022/01/29 04:18:36;;;;;;;40.17;18.92;;;7.80;99.90;;;;;;4995973;28;20120;-68
2022/01/29 04:21:03;;;;;;;31.73;19.80;;;7.80;99.90;;;;;;4995987;28;20038;-68
2022/01/29 04:23:29;;;;;;;42.05;19.65;;;7.80;99.90;;;;;;4995405;28;20050;-69
2022/01/29 04:25:55;;;;;;;50.58;20.38;;;7.80;99.90;;;;;;4992669;28;20498;-69
2022/01/29 04:28:29;;;;;;;36.28;19.30;;;8.00;99.90;;;;;;4976048;28;20572;-69
2022/01/29 04:31:01;;;;;;;37.67;20.35;;;7.90;99.90;;;;;;4975645;28;20069;-68
2022/01/29 04:33:30;;;;;;;36.63;19.70;;;7.80;99.90;;;;;;4976149;28;20062;-69
2022/01/29 04:36:01;;;;;;;38.22;19.95;;;7.80;99.90;;;;;;4975601;28;20286;-70
2022/01/29 04:38:28;;;;;;;36.55;19.45;;;7.90;99.90;;;;;;4975908;28;20074;-69
2022/01/29 04:40:55;;;;;;;35.28;19.75;;;7.90;99.90;;;;;;4976104;28;20058;-70
2022/01/29 04:43:21;;;;;;;44.92;20.02;;;7.90;99.90;;;;;;4975724;28;20050;-67
2022/01/29 04:45:47;;;;;;;36.35;20.23;;;7.90;99.90;;;;;;4978807;28;20046;-68
2022/01/29 04:48:13;;;;;;;38.63;19.27;;;7.90;99.90;;;;;;4995524;28;20109;-68
2022/01/29 04:50:39;;;;;;;39.17;19.15;;;7.90;99.90;;;;;;4995355;28;20121;-70
2022/01/29 04:53:04;;;;;;;42.30;18.70;;;8.00;99.90;;;;;;4995363;28;20467;-70
2022/01/29 04:55:31;;;;;;;38.63;18.63;;;8.00;99.90;;;;;;4976259;28;20049;-68
2022/01/29 04:57:56;;;;;;;35.47;19.00;;;8.00;99.90;;;;;;4975641;28;20129;-71
2022/01/29 05:00:22;;;;;;;37.90;18.05;;;8.00;99.90;;;;;;4974558;28;20455;-68
2022/01/29 05:02:50;;;;;;;31.75;18.70;;;8.00;99.90;;;;;;4975783;28;20051;-69
2022/01/29 05:05:16;;;;;;;33.72;18.80;;;8.00;99.90;;;;;;4975870;28;20047;-68
2022/01/29 05:07:41;;;;;;;43.85;19.88;;;8.00;99.90;;;;;;4959213;28;20507;-68
2022/01/29 05:10:07;;;;;;;33.33;19.05;;;8.10;99.90;;;;;;4975700;28;20383;-70
2022/01/29 05:12:44;;;;;;;34.95;19.70;;;8.10;99.90;;;;;;4958540;28;20140;-69
2022/01/29 05:15:26;;;;;;;41.08;19.20;;;8.10;99.90;;;;;;4975552;28;20077;-67
2022/01/29 05:28:48;;;;;;;34.88;18.58;;;8.10;99.90;;;;;;4998907;28;20437;-70
2022/01/29 05:31:14;;;;;;;37.50;18.30;;;8.10;99.90;;;;;;4998579;28;20121;-69
2022/01/29 05:33:39;;;;;;;36.83;19.40;;;8.20;99.90;;;;;;4981903;28;20446;-70
2022/01/29 05:36:05;;;;;;;38.22;18.65;;;8.40;99.90;;;;;;4978011;28;20380;-68
2022/01/29 05:38:31;;;;;;;34.40;19.00;;;8.20;99.90;;;;;;4975513;28;20062;-69
2022/01/29 05:40:56;;;;;;;34.67;17.73;;;8.20;99.90;;;;;;4998633;28;20050;-70
2022/01/29 05:43:22;;;;;;;39.05;17.60;;;8.20;99.90;;;;;;4998847;28;20121;-70
2022/01/29 05:45:48;;;;;;;29.58;17.23;;;8.20;99.90;;;;;;4965442;28;20050;-70
2022/01/29 05:48:14;;;;;;;31.55;18.05;;;8.30;99.90;;;;;;4998942;28;20372;-70
2022/01/29 05:50:39;;;;;;;33.97;17.02;;;8.30;99.90;;;;;;4981219;28;20043;-70
2022/01/29 05:53:05;;;;;;;37.78;18.55;;;8.30;99.90;;;;;;4981515;28;20058;-70
2022/01/29 05:55:31;;;;;;;36.63;17.13;;;8.30;99.90;;;;;;4981310;28;20057;-68
2022/01/29 05:57:56;;;;;;;32.10;18.05;;;8.30;99.90;;;;;;4998592;28;20051;-69
2022/01/29 06:00:22;;;;;;;30.10;16.85;;;8.30;99.90;;;;;;4998117;28;20050;-69
2022/01/29 06:03:01;;;;;;;31.48;17.95;;;8.30;99.90;;;;;;4981167;28;20046;-68
2022/01/29 06:05:27;;;;;;;31.23;16.42;;;8.30;99.90;;;;;;4998352;28;20065;-69
2022/01/29 06:07:53;;;;;;;33.47;18.67;;;8.30;99.90;;;;;;4980758;28;20046;-69
2022/01/29 06:10:19;;;;;;;31.33;17.38;;;8.30;99.90;;;;;;4981458;28;20054;-70
2022/01/29 06:12:44;;;;;;;32.35;17.73;;;8.30;99.90;;;;;;4965051;28;20482;-68
2022/01/29 06:15:11;;;;;;;31.60;16.90;;;8.40;99.90;;;;;;4997862;28;20058;-68
2022/01/29 06:17:38;;;;;;;30.08;16.80;;;8.40;99.90;;;;;;4998080;28;20382;-70
2022/01/29 06:20:04;;;;;;;33.40;16.80;;;8.40;99.90;;;;;;4981436;28;20181;-68
2022/01/29 06:22:29;;;;;;;29.15;16.10;;;8.40;99.90;;;;;;4996752;28;20073;-69
2022/01/29 06:24:55;;;;;;;31.73;17.77;;;8.40;99.90;;;;;;4974379;28;20399;-68
2022/01/29 06:27:21;;;;;;;29.50;16.45;;;8.40;99.90;;;;;;4965408;28;20050;-69
2022/01/29 06:29:46;;;;;;;29.15;16.75;;;8.40;99.90;;;;;;4961209;28;20087;-70
2022/01/29 06:32:12;;;;;;;31.80;16.90;;;8.40;99.90;;;;;;4961487;28;20050;-69
2022/01/29 06:34:37;;;;;;;36.45;17.27;;;8.40;99.90;;;;;;4961404;28;20043;-69
2022/01/29 06:37:03;;;;;;;30.73;17.52;;;8.40;99.90;;;;;;4978330;28;20055;-71
2022/01/29 06:39:29;;;;;;;27.13;16.05;;;8.40;99.90;;;;;;4961331;28;20467;-69
2022/01/29 06:41:54;;;;;;;33.95;16.42;;;8.40;99.90;;;;;;4977530;28;20046;-67
2022/01/29 06:44:20;;;;;;;28.38;15.05;;;8.40;99.90;;;;;;4977516;28;20076;-69
2022/01/29 06:46:45;;;;;;;26.48;16.35;;;8.50;99.90;;;;;;4977960;28;20054;-68
2022/01/29 06:49:11;;;;;;;24.13;15.75;;;8.40;99.90;;;;;;4961034;28;20479;-68
2022/01/29 06:51:36;;;;;;;28.85;15.30;;;8.40;99.90;;;;;;4963019;28;21883;-71
2022/01/29 06:54:02;;;;;;;35.53;16.15;;;8.50;99.90;;;;;;4985415;28;20471;-71
2022/01/29 06:56:27;;;;;;;28.60;16.02;;;8.50;99.90;;;;;;4985023;28;20427;-68
2022/01/29 06:58:53;;;;;;;29.25;15.68;;;8.50;99.90;;;;;;4976753;28;20088;-68
2022/01/29 07:01:18;;;;;;;30.45;15.65;;;8.50;99.90;;;;;;4980206;28;20043;-70
2022/01/29 07:03:44;;;;;;;25.20;14.95;;;8.50;99.90;;;;;;4996876;28;20052;-68
2022/01/29 07:06:09;;;;;;;26.77;15.25;;;8.50;99.90;;;;;;4980540;28;20058;-69
2022/01/29 07:08:38;;;;;;;25.85;14.98;;;8.50;99.90;;;;;;4997058;28;20042;-69
2022/01/29 07:11:04;;;;;;;25.80;13.50;;;8.60;99.90;;;;;;4980103;28;20050;-69
2022/01/29 07:13:30;;;;;;;24.38;14.32;;;8.60;99.90;;;;;;4996265;28;20471;-69
2022/01/29 07:15:56;;;;;;;22.17;13.82;;;8.60;99.90;;;;;;4980107;28;20065;-70
2022/01/29 07:18:21;;;;;;;25.95;13.93;;;8.60;99.90;;;;;;4997150;28;20459;-67
2022/01/29 07:20:48;;;;;;;22.15;14.40;;;8.60;99.90;;;;;;4979799;28;20380;-68
2022/01/29 07:23:14;;;;;;;26.10;14.20;;;8.60;99.90;;;;;;4990705;28;20102;-68
2022/01/29 07:25:39;;;;;;;24.10;14.65;;;8.60;99.90;;;;;;4990461;28;20501;-69
2022/01/29 07:28:05;;;;;;;24.90;14.32;;;8.60;99.90;;;;;;4960322;28;20046;-70
2022/01/29 07:30:30;;;;;;;23.17;13.85;;;8.60;99.90;;;;;;4960221;28;20050;-69
2022/01/29 07:32:56;;;;;;;23.00;13.98;;;8.60;99.90;;;;;;4960583;28;20065;-69
2022/01/29 07:35:22;;;;;;;20.30;12.90;;;8.60;99.90;;;;;;4977212;28;20066;-68
2022/01/29 07:37:48;;;;;;;23.13;14.65;;;8.60;99.90;;;;;;4976920;28;20046;-68
2022/01/29 07:40:14;;;;;;;23.02;13.88;;;8.60;99.90;;;;;;4976265;28;20051;-69
2022/01/29 07:42:39;;;;;;;28.70;14.40;;;8.60;99.90;;;;;;4976605;28;20130;-69
2022/01/29 07:45:05;;;;;;;24.35;13.85;;;8.60;99.90;;;;;;4977077;28;20043;-69
2022/01/29 07:47:31;;;;;;;26.27;13.95;;;8.50;99.90;;;;;;4977240;28;20397;-69
2022/01/29 07:49:57;;;;;;;27.35;14.27;;;8.60;99.90;;;;;;4960306;28;20074;-69
2022/01/29 07:52:22;;;;;;;23.48;13.57;;;8.60;99.90;;;;;;4980354;28;20456;-70
2022/01/29 07:54:48;;;;;;;29.10;12.93;;;8.50;99.90;;;;;;4959639;28;20081;-70
2022/01/29 07:57:13;;;;;;;28.70;13.77;;;8.50;99.90;;;;;;4959273;28;20050;-69
2022/01/29 07:59:39;;;;;;;23.52;13.32;;;8.50;99.90;;;;;;4959829;28;20054;-69
2022/01/29 08:02:04;;;;;;;27.13;14.25;;;8.50;99.90;;;;;;4976331;28;20058;-70
2022/01/29 08:04:30;;;;;;;27.55;13.45;;;8.50;99.90;;;;;;4976668;28;20053;-69
2022/01/29 08:06:55;;;;;;;24.88;14.50;;;8.50;99.90;;;;;;4976434;28;20058;-69
2022/01/29 08:09:21;;;;;;;24.88;13.27;;;8.50;99.90;;;;;;4976577;28;20046;-67
2022/01/29 08:11:46;;;;;;;25.73;14.52;;;8.50;99.90;;;;;;4958970;28;20043;-69
2022/01/29 08:14:13;;;;;;;25.70;14.40;;;8.50;99.90;;;;;;4975898;28;20051;-69
2022/01/29 08:16:39;;;;;;;30.17;15.32;;;8.50;99.90;;;;;;4959398;28;20095;-71
2022/01/29 08:19:04;;;;;;;30.42;14.40;;;8.50;99.90;;;;;;4959151;28;20456;-68
2022/01/29 08:21:30;;;;;;;26.27;15.02;;;8.50;99.90;;;;;;4961881;28;20126;-69
2022/01/29 08:23:55;;;;;;;33.33;13.95;;;8.50;99.90;;;;;;4978556;28;20069;-69
2022/01/29 08:26:21;;;;;;;28.38;13.82;;;8.50;99.90;;;;;;4989397;28;20102;-68
2022/01/29 08:28:46;;;;;;;29.33;13.82;;;8.50;99.90;;;;;;4958959;28;20046;-71
2022/01/29 08:31:12;;;;;;;21.25;13.05;;;8.50;99.90;;;;;;4975961;28;20423;-69
2022/01/29 08:33:38;;;;;;;25.58;13.07;;;8.50;99.90;;;;;;4959522;28;20082;-70
2022/01/29 08:36:04;;;;;;;25.60;14.35;;;8.60;99.90;;;;;;4975932;28;20058;-69
2022/01/29 08:38:30;;;;;;;23.13;12.77;;;8.60;99.90;;;;;;4959120;28;20069;-70
2022/01/29 08:40:58;;;;;;;28.80;12.50;;;8.60;99.90;;;;;;4958911;28;20225;-71
2022/01/29 08:43:24;;;;;;;26.80;12.48;;;8.60;99.90;;;;;;4965830;28;20054;-68
2022/01/29 08:45:51;;;;;;;21.83;12.07;;;8.60;99.90;;;;;;4993631;28;20047;-69
2022/01/29 08:48:17;;;;;;;26.98;12.40;;;8.70;99.90;;;;;;4975999;28;20050;-70
2022/01/29 08:50:43;;;;;;;21.77;12.25;;;8.70;99.90;;;;;;4975440;28;20039;-69
2022/01/29 08:53:09;;;;;;;21.05;11.25;;;8.70;99.90;;;;;;4974406;28;20433;-67
2022/01/29 08:55:38;;;;;;;15.85;10.68;;;8.80;99.90;;;;;;4979341;28;20069;-68
2022/01/29 08:58:06;;;;;;;21.38;10.55;;;8.80;99.90;;;;;;4975653;28;20127;-67
2022/01/29 09:00:32;;;;;;;20.65;10.45;;;8.80;99.90;;;;;;4984729;28;20042;-69
2022/01/29 09:02:57;;;;;;;21.70;10.70;;;8.90;99.90;;;;;;4992745;28;20050;-69
2022/01/29 09:05:23;;;;;;;19.88;10.02;;;8.90;99.90;;;;;;4969591;28;20073;-69
2022/01/29 09:07:48;;;;;;;17.50;9.55;;;8.90;99.90;;;;;;4958493;28;20113;-70
2022/01/29 09:10:14;;;;;;;17.42;9.07;;;9.00;99.90;;;;;;4958656;28;20109;-68
2022/01/29 09:12:40;;;;;;;19.13;9.02;;;9.00;99.90;;;;;;4958778;28;20447;-68
2022/01/29 09:15:06;;;;;;;14.73;7.90;;;9.10;99.90;;;;;;4975889;28;20093;-67
2022/01/29 09:17:32;;;;;;;14.80;7.90;;;9.10;99.90;;;;;;4958562;28;20112;-66
2022/01/29 09:19:58;;;;;;;15.18;7.55;;;9.10;99.90;;;;;;4975739;28;20058;-67
2022/01/29 09:22:23;;;;;;;16.10;6.88;;;9.10;99.90;;;;;;4958718;28;20081;-71
2022/01/29 09:24:49;;;;;;;17.00;7.32;;;9.20;99.90;;;;;;4985196;28;20410;-68
2022/01/29 09:27:14;;;;;;;15.68;6.85;;;9.20;99.90;;;;;;5000334;28;20377;-69
2022/01/29 09:29:40;;;;;;;14.02;6.57;;;9.20;99.90;;;;;;4984070;28;20046;-70
2022/01/29 09:32:06;;;;;;;17.13;6.43;;;9.30;99.90;;;;;;4997448;28;20106;-69
2022/01/29 09:34:32;;;;;;;16.13;6.63;;;9.30;99.90;;;;;;4972073;28;20049;-68
2022/01/29 09:36:57;;;;;;;13.45;6.00;;;9.40;99.90;;;;;;5001189;28;20046;-68
2022/01/29 09:39:23;;;;;;;16.40;7.13;;;9.50;99.90;;;;;;4991727;28;20438;-69
2022/01/29 09:41:49;;;;;;;13.45;6.00;;;9.50;99.90;;;;;;5001896;28;20534;-69
2022/01/29 09:44:15;;;;;;;12.13;6.28;;;9.50;99.90;;;;;;4987062;28;20050;-69
2022/01/29 09:46:43;;;;;;;12.93;5.85;;;9.60;99.90;;;;;;5006111;28;20038;-68
2022/01/29 09:49:09;;;;;;;12.30;5.72;;;9.60;99.90;;;;;;4994775;28;20112;-68
2022/01/29 09:51:38;;;;;;;17.50;5.60;;;9.60;99.90;;;;;;4999411;28;20065;-70
2022/01/29 09:54:04;;;;;;;15.85;5.50;;;9.60;99.90;;;;;;4958247;28;20054;-69
2022/01/29 09:56:30;;;;;;;12.55;5.35;;;9.60;99.90;;;;;;4975052;28;20058;-70
2022/01/29 09:58:56;;;;;;;13.65;5.47;;;9.60;99.90;;;;;;4958666;28;20094;-68
2022/01/29 10:01:22;;;;;;;10.65;5.35;;;9.60;99.90;;;;;;4975046;28;20078;-68
2022/01/29 10:04:05;;;;;;;14.02;5.40;;;9.70;99.90;;;;;;4992013;28;20485;-69
2022/01/29 10:06:31;;;;;;;11.98;5.82;;;9.70;99.90;;;;;;4997719;28;20043;-69
2022/01/29 10:08:59;;;;;;;12.32;5.43;;;9.70;99.90;;;;;;4998564;28;20371;-68
2022/01/29 10:11:27;;;;;;;15.55;5.90;;;9.70;99.90;;;;;;4997973;28;20061;-69
2022/01/29 10:13:59;;;;;;;11.57;5.35;;;9.70;99.90;;;;;;4997958;28;20491;-67
2022/01/29 10:16:27;;;;;;;12.07;5.22;;;9.70;99.90;;;;;;4979255;28;20059;-67
2022/01/29 10:19:03;;;;;;;16.33;5.70;;;9.70;99.90;;;;;;4988393;28;20050;-70
2022/01/29 10:21:34;;;;;;;13.40;5.13;;;9.70;99.90;;;;;;5004661;28;20492;-68
2022/01/29 10:24:05;;;;;;;15.70;5.07;;;9.70;99.90;;;;;;4999821;28;20080;-70
2022/01/29 10:26:39;;;;;;;12.23;4.35;;;9.70;99.90;;;;;;5005365;28;20477;-68
2022/01/29 10:29:07;;;;;;;12.65;4.28;;;9.70;99.90;;;;;;4997011;28;20201;-68
2022/01/29 10:31:43;;;;;;;14.35;4.68;;;9.80;99.90;;;;;;4998354;28;20049;-67
2022/01/29 10:34:22;;;;;;;11.05;4.40;;;9.80;99.90;;;;;;4998185;28;20042;-69
2022/01/29 10:37:17;;;;;;;17.75;4.43;;;9.80;99.90;;;;;;5010353;28;20062;-67
2022/01/29 10:39:51;;;;;;;10.77;4.03;;;9.80;99.90;;;;;;4980923;28;20133;-67
2022/01/29 10:42:24;;;;;;;16.35;4.35;;;9.80;99.90;;;;;;4960864;28;20066;-67
2022/01/29 10:44:52;;;;;;;11.73;4.28;;;9.80;99.90;;;;;;4972937;28;20129;-68
2022/01/29 10:47:18;;;;;;;7.95;3.47;;;9.90;99.90;;;;;;4976342;28;20077;-69
2022/01/29 10:49:59;;;;;;;12.07;3.80;;;9.90;99.90;;;;;;5008206;28;20038;-70
2022/01/29 10:52:30;;;;;;;9.25;3.58;;;9.90;99.90;;;;;;4978688;28;20349;-69
2022/01/29 10:55:07;;;;;;;8.55;3.50;;;9.90;99.90;;;;;;4960703;28;20062;-69
2022/01/29 10:57:46;;;;;;;12.07;3.40;;;9.90;99.90;;;;;;4977700;28;20053;-67
2022/01/29 11:00:24;;;;;;;14.30;3.63;;;10.00;99.90;;;;;;4960608;28;20058;-69
2022/01/29 11:02:53;;;;;;;11.40;3.42;;;10.00;99.90;;;;;;4977601;28;20367;-68
2022/01/29 11:05:24;;;;;;;11.73;3.60;;;10.10;99.90;;;;;;4977977;28;20419;-68
2022/01/29 11:07:53;;;;;;;10.93;3.75;;;10.00;99.90;;;;;;4996817;28;20061;-67
2022/01/29 11:10:19;;;;;;;12.68;3.70;;;10.10;99.90;;;;;;4996819;28;20038;-69
2022/01/29 11:12:46;;;;;;;9.32;3.80;;;10.10;99.90;;;;;;4979621;28;20340;-69
2022/01/29 11:15:15;;;;;;;13.30;3.20;;;10.10;99.90;;;;;;4996765;28;20054;-69
2022/01/29 11:17:42;;;;;;;11.80;3.58;;;10.10;99.90;;;;;;4979402;28;20470;-70
2022/01/29 11:20:08;;;;;;;9.77;3.25;;;10.10;99.90;;;;;;4996790;28;20148;-71
2022/01/29 11:22:38;;;;;;;12.23;4.45;;;10.10;99.90;;;;;;4996599;28;20073;-69
2022/01/29 11:25:07;;;;;;;13.98;3.60;;;10.10;99.90;;;;;;4996866;28;20077;-69
2022/01/29 11:27:37;;;;;;;11.18;3.45;;;10.10;99.90;;;;;;4963508;28;20056;-69
2022/01/29 11:30:04;;;;;;;9.65;3.42;;;10.20;99.90;;;;;;4960333;28;20051;-70
2022/01/29 11:32:47;;;;;;;17.23;4.15;;;10.10;99.90;;;;;;4960301;28;20054;-69
2022/01/29 11:35:16;;;;;;;11.48;3.92;;;10.10;99.90;;;;;;4960296;28;20050;-68
2022/01/29 11:37:47;;;;;;;11.40;3.53;;;10.20;99.90;;;;;;4978591;28;20050;-71
2022/01/29 11:40:25;;;;;;;19.17;3.53;;;10.20;99.90;;;;;;4995705;28;20482;-70
2022/01/29 11:42:51;;;;;;;13.30;3.78;;;10.20;99.90;;;;;;4996524;28;20050;-66
2022/01/29 11:45:41;;;;;;;9.55;3.20;;;10.20;99.90;;;;;;4979275;28;20058;-68
2022/01/29 11:48:33;;;;;;;14.68;2.90;;;10.20;99.90;;;;;;4995476;28;20050;-68
2022/01/29 11:51:02;;;;;;;9.80;2.63;;;10.20;99.90;;;;;;4978133;28;20054;-68
2022/01/29 11:53:50;;;;;;;11.50;2.80;;;10.20;99.90;;;;;;4996047;28;20054;-70
2022/01/29 11:56:32;;;;;;;11.65;3.00;;;10.20;99.90;;;;;;4978356;28;20093;-69
2022/01/29 11:59:19;;;;;;;11.30;2.67;;;10.20;99.90;;;;;;4986681;28;20117;-70
2022/01/29 12:01:46;;;;;;;11.88;3.13;;;10.30;99.90;;;;;;5002348;28;20467;-67
2022/01/29 12:04:12;;;;;;;9.48;2.42;;;10.30;99.90;;;;;;4987862;28;20478;-67
2022/01/29 12:07:08;;;;;;;12.07;3.15;;;10.40;99.90;;;;;;5000017;28;20050;-66
2022/01/29 12:09:48;;;;;;;8.13;2.35;;;10.40;99.90;;;;;;4979237;28;20066;-67
2022/01/29 12:12:20;;;;;;;13.75;2.90;;;10.50;99.90;;;;;;4977709;28;20455;-66
2022/01/29 12:14:56;;;;;;;16.63;2.43;;;10.50;99.90;;;;;;4998934;28;20050;-65
2022/01/29 12:17:51;;;;;;;16.92;3.50;;;10.50;99.90;;;;;;4998676;28;20046;-66
2022/01/29 12:20:21;;;;;;;9.48;2.40;;;10.60;99.90;;;;;;5002899;28;20078;-68
2022/01/29 12:22:49;;;;;;;11.35;2.63;;;10.60;99.90;;;;;;4982573;28;20051;-68
2022/01/29 12:25:17;;;;;;;8.98;2.45;;;10.60;99.90;;;;;;4986150;28;20129;-68
2022/01/29 12:27:44;;;;;;;11.45;2.83;;;10.60;99.90;;;;;;4982253;28;20355;-66
2022/01/29 12:30:12;;;;;;;14.15;3.55;;;10.70;99.90;;;;;;4993714;28;20043;-68
2022/01/29 12:32:38;;;;;;;5.93;2.22;;;10.80;99.90;;;;;;4995122;28;20042;-67
2022/01/29 12:35:04;;;;;;;9.65;2.35;;;10.80;99.90;;;;;;4978073;28;20061;-68
2022/01/29 12:37:30;;;;;;;7.18;2.65;;;10.80;99.90;;;;;;4977850;28;20483;-66
2022/01/29 12:40:19;;;;;;;8.10;2.13;;;10.80;99.90;;;;;;4957777;28;20058;-67
2022/01/29 12:42:56;;;;;;;8.68;2.33;;;10.80;99.90;;;;;;4977977;28;20470;-67
2022/01/29 12:45:24;;;;;;;13.02;2.83;;;10.80;99.90;;;;;;4977540;28;20058;-67
2022/01/29 12:47:50;;;;;;;12.82;2.30;;;10.90;99.90;;;;;;4994957;28;20050;-68
2022/01/29 12:50:20;;;;;;;13.95;3.00;;;10.90;99.90;;;;;;4978729;28;20050;-70
2022/01/29 12:52:46;;;;;;;10.20;2.92;;;10.90;99.90;;;;;;4994028;28;20065;-69